Uptown, Indiana
Current Conditions -  °F | °C
As of 11:53 AM on Thursday 18 Dec 2014 (Local Time) from KEYE Reporting Station
Overcast Overcast  
Wind Chill: 26°   Ceiling: 1700
Heat Index: 26°   Visibility: 10mi
Dew Point: 20°   Wind: 3mph
Humidity: 78%   Direction: 360°N
Pressure: 30.26"   Gusts: NA
Location:  39.8275°N, 86.1353°W
Report Text: KEYE 181653Z AUTO 36003KT 10SM OVC017 M03/M07 A3026 RMK AO2 SLP257 T10331067
Loading
Personal Weather Stations






























Interactive Weather Map New forecast layout! Learn more

10-Day Weather Forecast

Advertisements
Track Severe Weather on mobile